Holeby, Denmark
Current Conditions -  °F | °C
As of 4:50 PM on Thursday 23 Oct 2014 (Local Time) from EDHK Reporting Station
Broken Clouds Broken Clouds  
Wind Chill: 54°   Ceiling: 2900
Heat Index: 54°   Visibility: 6mi
Dew Point: 46°   Wind: 6mph
Humidity: 77%   Direction: 190°S
Pressure: 30.12"   Gusts: NA
Location:  54.71°N, 11.46°E
Report Text: EDHK 231450Z 19005KT 160V220 9999 BKN029 12/08 Q1020
Loading
Personal Weather Stations






























Interactive Weather Map
Tropical Storm Tracking
New forecast layout! Learn more

10-Day Weather Forecast

Advertisements
Track Severe Weather on mobile